sensor_id;sensor_type;location;lat;lon;timestamp;P1;durP1;ratioP1;P2;durP2;ratioP2
64550;SDS011;50945;44.472;-123.352;2022-12-07T00:01:29;4.90;;;3.58;;
64550;SDS011;50945;44.472;-123.352;2022-12-07T00:03:59;7.70;;;3.60;;
64550;SDS011;50945;44.472;-123.352;2022-12-07T00:06:36;5.70;;;3.75;;
64550;SDS011;50945;44.472;-123.352;2022-12-07T00:09:05;5.72;;;3.10;;
64550;SDS011;50945;44.472;-123.352;2022-12-07T00:11:33;7.85;;;3.67;;
64550;SDS011;50945;44.472;-123.352;2022-12-07T00:14:01;5.45;;;3.42;;
64550;SDS011;50945;44.472;-123.352;2022-12-07T00:16:30;5.82;;;3.60;;
64550;SDS011;50945;44.472;-123.352;2022-12-07T00:18:58;4.50;;;3.17;;
64550;SDS011;50945;44.472;-123.352;2022-12-07T00:21:26;4.63;;;3.20;;
64550;SDS011;50945;44.472;-123.352;2022-12-07T00:23:56;5.55;;;3.88;;
64550;SDS011;50945;44.472;-123.352;2022-12-07T00:26:24;4.22;;;3.60;;
64550;SDS011;50945;44.472;-123.352;2022-12-07T00:28:56;5.22;;;3.58;;
64550;SDS011;50945;44.472;-123.352;2022-12-07T00:31:26;6.22;;;4.05;;
64550;SDS011;50945;44.472;-123.352;2022-12-07T00:33:53;5.97;;;4.13;;
64550;SDS011;50945;44.472;-123.352;2022-12-07T00:36:21;6.97;;;4.57;;
64550;SDS011;50945;44.472;-123.352;2022-12-07T00:38:48;6.05;;;3.70;;
64550;SDS011;50945;44.472;-123.352;2022-12-07T00:41:18;8.15;;;3.75;;
64550;SDS011;50945;44.472;-123.352;2022-12-07T00:43:46;6.70;;;3.88;;
64550;SDS011;50945;44.472;-123.352;2022-12-07T00:46:14;6.32;;;3.88;;
64550;SDS011;50945;44.472;-123.352;2022-12-07T00:48:41;7.75;;;4.38;;
64550;SDS011;50945;44.472;-123.352;2022-12-07T00:51:08;6.38;;;3.88;;
64550;SDS011;50945;44.472;-123.352;2022-12-07T00:53:37;5.55;;;3.58;;
64550;SDS011;50945;44.472;-123.352;2022-12-07T00:56:13;6.70;;;3.35;;
64550;SDS011;50945;44.472;-123.352;2022-12-07T00:58:41;8.45;;;3.65;;
64550;SDS011;50945;44.472;-123.352;2022-12-07T01:01:08;10.48;;;4.50;;
64550;SDS011;50945;44.472;-123.352;2022-12-07T01:03:35;8.40;;;3.80;;
64550;SDS011;50945;44.472;-123.352;2022-12-07T01:06:03;7.15;;;4.20;;
64550;SDS011;50945;44.472;-123.352;2022-12-07T01:08:29;7.55;;;4.10;;
64550;SDS011;50945;44.472;-123.352;2022-12-07T01:13:30;7.43;;;4.35;;
64550;SDS011;50945;44.472;-123.352;2022-12-07T01:15:59;8.05;;;4.65;;
64550;SDS011;50945;44.472;-123.352;2022-12-07T01:18:27;9.13;;;5.10;;
64550;SDS011;50945;44.472;-123.352;2022-12-07T01:25:58;13.77;;;5.85;;
64550;SDS011;50945;44.472;-123.352;2022-12-07T01:28:26;13.20;;;6.10;;
64550;SDS011;50945;44.472;-123.352;2022-12-07T01:31:00;12.65;;;6.30;;
64550;SDS011;50945;44.472;-123.352;2022-12-07T01:33:29;13.63;;;6.38;;
64550;SDS011;50945;44.472;-123.352;2022-12-07T01:36:05;13.45;;;6.65;;
64550;SDS011;50945;44.472;-123.352;2022-12-07T01:38:39;12.50;;;6.43;;
64550;SDS011;50945;44.472;-123.352;2022-12-07T01:41:05;11.18;;;6.10;;
64550;SDS011;50945;44.472;-123.352;2022-12-07T01:43:33;11.15;;;6.30;;
64550;SDS011;50945;44.472;-123.352;2022-12-07T01:46:00;20.98;;;6.13;;
64550;SDS011;50945;44.472;-123.352;2022-12-07T01:48:32;20.33;;;7.88;;
64550;SDS011;50945;44.472;-123.352;2022-12-07T01:51:08;18.42;;;6.65;;
64550;SDS011;50945;44.472;-123.352;2022-12-07T01:53:38;14.27;;;7.25;;
64550;SDS011;50945;44.472;-123.352;2022-12-07T01:56:10;21.98;;;8.35;;
64550;SDS011;50945;44.472;-123.352;2022-12-07T01:58:39;21.73;;;7.45;;
64550;SDS011;50945;44.472;-123.352;2022-12-07T02:01:06;27.05;;;8.15;;
64550;SDS011;50945;44.472;-123.352;2022-12-07T02:03:42;24.95;;;7.57;;
64550;SDS011;50945;44.472;-123.352;2022-12-07T02:06:10;21.00;;;7.25;;
64550;SDS011;50945;44.472;-123.352;2022-12-07T02:08:39;18.80;;;7.25;;
64550;SDS011;50945;44.472;-123.352;2022-12-07T02:13:34;29.15;;;8.48;;
64550;SDS011;50945;44.472;-123.352;2022-12-07T02:18:38;18.10;;;6.43;;
64550;SDS011;50945;44.472;-123.352;2022-12-07T02:23:50;32.45;;;8.02;;
64550;SDS011;50945;44.472;-123.352;2022-12-07T02:29:35;23.80;;;8.30;;
64550;SDS011;50945;44.472;-123.352;2022-12-07T02:32:40;34.83;;;8.45;;
64550;SDS011;50945;44.472;-123.352;2022-12-07T02:37:39;34.83;;;8.25;;
64550;SDS011;50945;44.472;-123.352;2022-12-07T02:40:33;38.58;;;8.65;;
64550;SDS011;50945;44.472;-123.352;2022-12-07T02:43:12;23.88;;;8.25;;
64550;SDS011;50945;44.472;-123.352;2022-12-07T02:45:58;22.73;;;9.30;;
64550;SDS011;50945;44.472;-123.352;2022-12-07T02:48:30;45.92;;;7.82;;
64550;SDS011;50945;44.472;-123.352;2022-12-07T02:50:59;20.15;;;7.55;;
64550;SDS011;50945;44.472;-123.352;2022-12-07T02:53:32;43.15;;;8.23;;
64550;SDS011;50945;44.472;-123.352;2022-12-07T02:56:01;29.83;;;8.82;;
64550;SDS011;50945;44.472;-123.352;2022-12-07T03:12:34;17.95;;;6.28;;
64550;SDS011;50945;44.472;-123.352;2022-12-07T03:15:24;23.20;;;6.80;;
64550;SDS011;50945;44.472;-123.352;2022-12-07T03:17:55;18.67;;;6.13;;
64550;SDS011;50945;44.472;-123.352;2022-12-07T03:20:25;49.00;;;6.78;;
64550;SDS011;50945;44.472;-123.352;2022-12-07T03:22:53;30.70;;;6.82;;
64550;SDS011;50945;44.472;-123.352;2022-12-07T03:25:21;51.40;;;7.20;;
64550;SDS011;50945;44.472;-123.352;2022-12-07T03:28:01;15.65;;;6.38;;
64550;SDS011;50945;44.472;-123.352;2022-12-07T03:31:14;27.38;;;5.88;;
64550;SDS011;50945;44.472;-123.352;2022-12-07T03:33:26;30.98;;;6.72;;
64550;SDS011;50945;44.472;-123.352;2022-12-07T03:36:02;25.48;;;5.82;;
64550;SDS011;50945;44.472;-123.352;2022-12-07T03:41:48;19.25;;;5.50;;
64550;SDS011;50945;44.472;-123.352;2022-12-07T03:44:16;16.63;;;6.60;;
64550;SDS011;50945;44.472;-123.352;2022-12-07T03:49:39;21.83;;;6.53;;
64550;SDS011;50945;44.472;-123.352;2022-12-07T03:52:24;12.98;;;6.13;;
64550;SDS011;50945;44.472;-123.352;2022-12-07T03:55:05;20.48;;;5.97;;
64550;SDS011;50945;44.472;-123.352;2022-12-07T03:57:33;25.38;;;6.90;;
64550;SDS011;50945;44.472;-123.352;2022-12-07T04:00:03;24.45;;;7.20;;
64550;SDS011;50945;44.472;-123.352;2022-12-07T04:02:32;18.92;;;6.47;;
64550;SDS011;50945;44.472;-123.352;2022-12-07T04:04:59;20.30;;;6.95;;
64550;SDS011;50945;44.472;-123.352;2022-12-07T04:07:26;20.00;;;6.63;;
64550;SDS011;50945;44.472;-123.352;2022-12-07T04:09:53;19.15;;;6.78;;
64550;SDS011;50945;44.472;-123.352;2022-12-07T04:12:23;17.95;;;6.50;;
64550;SDS011;50945;44.472;-123.352;2022-12-07T04:14:49;19.40;;;5.55;;
64550;SDS011;50945;44.472;-123.352;2022-12-07T04:17:16;26.88;;;6.00;;
64550;SDS011;50945;44.472;-123.352;2022-12-07T04:19:42;28.27;;;6.60;;
64550;SDS011;50945;44.472;-123.352;2022-12-07T04:22:11;24.02;;;7.63;;
64550;SDS011;50945;44.472;-123.352;2022-12-07T04:24:38;22.55;;;6.30;;
64550;SDS011;50945;44.472;-123.352;2022-12-07T04:27:04;23.92;;;6.05;;
64550;SDS011;50945;44.472;-123.352;2022-12-07T04:29:31;22.17;;;6.85;;
64550;SDS011;50945;44.472;-123.352;2022-12-07T04:31:57;14.52;;;6.22;;
64550;SDS011;50945;44.472;-123.352;2022-12-07T04:34:24;21.20;;;7.05;;
64550;SDS011;50945;44.472;-123.352;2022-12-07T04:36:50;19.77;;;7.13;;
64550;SDS011;50945;44.472;-123.352;2022-12-07T04:39:27;27.00;;;6.32;;
64550;SDS011;50945;44.472;-123.352;2022-12-07T04:41:55;24.55;;;6.28;;
64550;SDS011;50945;44.472;-123.352;2022-12-07T04:46:50;25.58;;;9.57;;
64550;SDS011;50945;44.472;-123.352;2022-12-07T04:49:17;25.38;;;8.70;;
64550;SDS011;50945;44.472;-123.352;2022-12-07T04:51:44;23.42;;;8.32;;
64550;SDS011;50945;44.472;-123.352;2022-12-07T04:54:12;18.77;;;6.22;;
64550;SDS011;50945;44.472;-123.352;2022-12-07T04:56:39;21.40;;;7.63;;
64550;SDS011;50945;44.472;-123.352;2022-12-07T04:59:07;16.48;;;6.43;;
64550;SDS011;50945;44.472;-123.352;2022-12-07T05:01:35;25.80;;;6.28;;
64550;SDS011;50945;44.472;-123.352;2022-12-07T05:04:02;17.88;;;5.97;;
64550;SDS011;50945;44.472;-123.352;2022-12-07T05:06:30;22.83;;;5.10;;
64550;SDS011;50945;44.472;-123.352;2022-12-07T05:08:57;14.77;;;5.72;;
64550;SDS011;50945;44.472;-123.352;2022-12-07T05:11:32;22.50;;;5.65;;
64550;SDS011;50945;44.472;-123.352;2022-12-07T05:16:37;18.40;;;5.00;;
64550;SDS011;50945;44.472;-123.352;2022-12-07T05:19:04;15.35;;;5.75;;
64550;SDS011;50945;44.472;-123.352;2022-12-07T05:21:31;15.50;;;5.20;;
64550;SDS011;50945;44.472;-123.352;2022-12-07T05:23:57;14.35;;;4.60;;
64550;SDS011;50945;44.472;-123.352;2022-12-07T05:26:24;10.60;;;4.30;;
64550;SDS011;50945;44.472;-123.352;2022-12-07T05:28:52;11.07;;;3.78;;
64550;SDS011;50945;44.472;-123.352;2022-12-07T05:31:19;5.78;;;3.67;;
64550;SDS011;50945;44.472;-123.352;2022-12-07T05:33:46;7.10;;;3.83;;
64550;SDS011;50945;44.472;-123.352;2022-12-07T05:36:13;7.95;;;3.97;;
64550;SDS011;50945;44.472;-123.352;2022-12-07T05:38:40;14.30;;;3.92;;
64550;SDS011;50945;44.472;-123.352;2022-12-07T05:41:08;8.43;;;4.00;;
64550;SDS011;50945;44.472;-123.352;2022-12-07T05:43:57;9.98;;;3.80;;
64550;SDS011;50945;44.472;-123.352;2022-12-07T05:46:23;12.70;;;3.78;;
64550;SDS011;50945;44.472;-123.352;2022-12-07T05:48:50;6.28;;;3.80;;
64550;SDS011;50945;44.472;-123.352;2022-12-07T05:51:16;9.82;;;4.07;;
64550;SDS011;50945;44.472;-123.352;2022-12-07T05:56:13;14.60;;;4.45;;
64550;SDS011;50945;44.472;-123.352;2022-12-07T05:58:40;10.63;;;3.90;;
64550;SDS011;50945;44.472;-123.352;2022-12-07T06:01:24;9.70;;;3.55;;
64550;SDS011;50945;44.472;-123.352;2022-12-07T06:03:51;9.75;;;4.03;;
64550;SDS011;50945;44.472;-123.352;2022-12-07T06:06:17;8.05;;;3.90;;
64550;SDS011;50945;44.472;-123.352;2022-12-07T06:08:44;7.18;;;3.65;;
64550;SDS011;50945;44.472;-123.352;2022-12-07T06:11:10;5.97;;;3.60;;
64550;SDS011;50945;44.472;-123.352;2022-12-07T06:13:55;5.55;;;3.35;;
64550;SDS011;50945;44.472;-123.352;2022-12-07T06:16:21;6.35;;;3.40;;
64550;SDS011;50945;44.472;-123.352;2022-12-07T06:18:48;7.93;;;3.70;;
64550;SDS011;50945;44.472;-123.352;2022-12-07T06:21:14;15.13;;;4.05;;
64550;SDS011;50945;44.472;-123.352;2022-12-07T06:23:41;8.10;;;3.97;;
64550;SDS011;50945;44.472;-123.352;2022-12-07T06:26:07;7.07;;;3.75;;
64550;SDS011;50945;44.472;-123.352;2022-12-07T06:28:34;6.28;;;3.63;;
64550;SDS011;50945;44.472;-123.352;2022-12-07T06:31:00;7.85;;;3.92;;
64550;SDS011;50945;44.472;-123.352;2022-12-07T06:33:28;10.45;;;3.78;;
64550;SDS011;50945;44.472;-123.352;2022-12-07T06:35:55;5.07;;;3.50;;
64550;SDS011;50945;44.472;-123.352;2022-12-07T06:38:22;12.25;;;3.95;;
64550;SDS011;50945;44.472;-123.352;2022-12-07T06:40:48;6.60;;;3.75;;
64550;SDS011;50945;44.472;-123.352;2022-12-07T06:43:14;7.75;;;3.55;;
64550;SDS011;50945;44.472;-123.352;2022-12-07T06:45:41;9.40;;;3.50;;
64550;SDS011;50945;44.472;-123.352;2022-12-07T06:48:08;7.03;;;3.55;;
64550;SDS011;50945;44.472;-123.352;2022-12-07T06:50:34;12.18;;;4.50;;
64550;SDS011;50945;44.472;-123.352;2022-12-07T06:53:01;5.72;;;3.90;;
64550;SDS011;50945;44.472;-123.352;2022-12-07T06:55:27;7.03;;;3.50;;
64550;SDS011;50945;44.472;-123.352;2022-12-07T06:57:53;7.03;;;3.58;;
64550;SDS011;50945;44.472;-123.352;2022-12-07T07:00:20;9.68;;;3.58;;
64550;SDS011;50945;44.472;-123.352;2022-12-07T07:02:46;8.57;;;4.13;;
64550;SDS011;50945;44.472;-123.352;2022-12-07T07:05:12;10.70;;;3.75;;
64550;SDS011;50945;44.472;-123.352;2022-12-07T07:07:39;15.20;;;4.53;;
64550;SDS011;50945;44.472;-123.352;2022-12-07T07:10:05;13.93;;;3.65;;
64550;SDS011;50945;44.472;-123.352;2022-12-07T07:12:32;8.02;;;3.95;;
64550;SDS011;50945;44.472;-123.352;2022-12-07T07:14:58;11.23;;;3.78;;
64550;SDS011;50945;44.472;-123.352;2022-12-07T07:17:27;5.78;;;3.47;;
64550;SDS011;50945;44.472;-123.352;2022-12-07T07:19:53;14.07;;;3.80;;
64550;SDS011;50945;44.472;-123.352;2022-12-07T07:22:20;11.57;;;3.95;;
64550;SDS011;50945;44.472;-123.352;2022-12-07T07:24:46;7.05;;;3.67;;
64550;SDS011;50945;44.472;-123.352;2022-12-07T07:27:13;11.07;;;3.42;;
64550;SDS011;50945;44.472;-123.352;2022-12-07T07:29:42;11.32;;;3.97;;
64550;SDS011;50945;44.472;-123.352;2022-12-07T07:32:08;10.63;;;4.20;;
64550;SDS011;50945;44.472;-123.352;2022-12-07T07:34:35;13.00;;;3.67;;
64550;SDS011;50945;44.472;-123.352;2022-12-07T07:37:01;8.77;;;3.38;;
64550;SDS011;50945;44.472;-123.352;2022-12-07T07:39:27;11.73;;;3.58;;
64550;SDS011;50945;44.472;-123.352;2022-12-07T07:41:53;8.38;;;3.50;;
64550;SDS011;50945;44.472;-123.352;2022-12-07T07:44:20;9.68;;;3.80;;
64550;SDS011;50945;44.472;-123.352;2022-12-07T07:46:47;6.25;;;2.88;;
64550;SDS011;50945;44.472;-123.352;2022-12-07T07:49:13;5.30;;;3.28;;
64550;SDS011;50945;44.472;-123.352;2022-12-07T07:51:39;6.38;;;3.53;;
64550;SDS011;50945;44.472;-123.352;2022-12-07T07:54:05;7.40;;;2.88;;
64550;SDS011;50945;44.472;-123.352;2022-12-07T07:56:32;6.60;;;3.83;;
64550;SDS011;50945;44.472;-123.352;2022-12-07T07:58:58;8.13;;;3.33;;
64550;SDS011;50945;44.472;-123.352;2022-12-07T08:01:24;7.50;;;3.40;;
64550;SDS011;50945;44.472;-123.352;2022-12-07T08:03:50;5.85;;;3.00;;
64550;SDS011;50945;44.472;-123.352;2022-12-07T08:06:17;8.70;;;3.33;;
64550;SDS011;50945;44.472;-123.352;2022-12-07T08:08:43;7.38;;;2.97;;
64550;SDS011;50945;44.472;-123.352;2022-12-07T08:11:09;8.43;;;3.65;;
64550;SDS011;50945;44.472;-123.352;2022-12-07T08:13:36;6.97;;;3.58;;
64550;SDS011;50945;44.472;-123.352;2022-12-07T08:16:04;4.38;;;3.00;;
64550;SDS011;50945;44.472;-123.352;2022-12-07T08:18:35;5.90;;;2.85;;
64550;SDS011;50945;44.472;-123.352;2022-12-07T08:21:03;3.97;;;2.80;;
64550;SDS011;50945;44.472;-123.352;2022-12-07T08:23:30;2.92;;;2.03;;
64550;SDS011;50945;44.472;-123.352;2022-12-07T08:26:03;3.45;;;2.35;;
64550;SDS011;50945;44.472;-123.352;2022-12-07T08:28:31;3.78;;;2.13;;
64550;SDS011;50945;44.472;-123.352;2022-12-07T08:31:05;3.67;;;2.10;;
64550;SDS011;50945;44.472;-123.352;2022-12-07T08:33:34;6.18;;;2.90;;
64550;SDS011;50945;44.472;-123.352;2022-12-07T08:36:04;5.22;;;3.13;;
64550;SDS011;50945;44.472;-123.352;2022-12-07T08:38:33;7.25;;;3.38;;
64550;SDS011;50945;44.472;-123.352;2022-12-07T08:41:03;3.83;;;2.47;;
64550;SDS011;50945;44.472;-123.352;2022-12-07T08:43:30;5.63;;;2.78;;
64550;SDS011;50945;44.472;-123.352;2022-12-07T08:46:13;3.78;;;3.10;;
64550;SDS011;50945;44.472;-123.352;2022-12-07T08:51:19;3.88;;;2.40;;
64550;SDS011;50945;44.472;-123.352;2022-12-07T08:53:48;3.42;;;2.42;;
64550;SDS011;50945;44.472;-123.352;2022-12-07T08:56:16;6.82;;;2.25;;
64550;SDS011;50945;44.472;-123.352;2022-12-07T08:58:43;9.50;;;2.50;;
64550;SDS011;50945;44.472;-123.352;2022-12-07T09:01:09;3.00;;;2.10;;
64550;SDS011;50945;44.472;-123.352;2022-12-07T09:03:36;3.92;;;2.28;;
64550;SDS011;50945;44.472;-123.352;2022-12-07T09:06:02;3.30;;;2.60;;
64550;SDS011;50945;44.472;-123.352;2022-12-07T09:08:33;6.30;;;3.03;;
64550;SDS011;50945;44.472;-123.352;2022-12-07T09:11:03;3.42;;;2.53;;
64550;SDS011;50945;44.472;-123.352;2022-12-07T09:13:30;3.50;;;2.40;;
64550;SDS011;50945;44.472;-123.352;2022-12-07T09:15:56;4.53;;;2.33;;
64550;SDS011;50945;44.472;-123.352;2022-12-07T09:18:22;5.75;;;2.50;;
64550;SDS011;50945;44.472;-123.352;2022-12-07T09:20:50;5.28;;;2.65;;
64550;SDS011;50945;44.472;-123.352;2022-12-07T09:23:16;5.90;;;3.38;;
64550;SDS011;50945;44.472;-123.352;2022-12-07T09:25:46;8.82;;;2.78;;
64550;SDS011;50945;44.472;-123.352;2022-12-07T09:28:12;9.02;;;2.72;;
64550;SDS011;50945;44.472;-123.352;2022-12-07T09:30:38;6.28;;;2.28;;
64550;SDS011;50945;44.472;-123.352;2022-12-07T09:33:10;6.20;;;3.33;;
64550;SDS011;50945;44.472;-123.352;2022-12-07T09:35:36;4.10;;;2.58;;
64550;SDS011;50945;44.472;-123.352;2022-12-07T09:38:02;6.80;;;3.60;;
64550;SDS011;50945;44.472;-123.352;2022-12-07T09:40:29;3.75;;;2.85;;
64550;SDS011;50945;44.472;-123.352;2022-12-07T09:42:55;5.45;;;2.45;;
64550;SDS011;50945;44.472;-123.352;2022-12-07T09:45:40;4.20;;;2.40;;
64550;SDS011;50945;44.472;-123.352;2022-12-07T09:48:11;4.90;;;2.20;;
64550;SDS011;50945;44.472;-123.352;2022-12-07T09:50:46;7.80;;;2.97;;
64550;SDS011;50945;44.472;-123.352;2022-12-07T09:53:24;5.20;;;2.80;;
64550;SDS011;50945;44.472;-123.352;2022-12-07T09:55:53;3.08;;;2.70;;
64550;SDS011;50945;44.472;-123.352;2022-12-07T09:58:21;4.90;;;2.67;;
64550;SDS011;50945;44.472;-123.352;2022-12-07T10:01:01;3.28;;;2.45;;
64550;SDS011;50945;44.472;-123.352;2022-12-07T10:03:38;4.82;;;2.95;;
64550;SDS011;50945;44.472;-123.352;2022-12-07T10:06:06;3.13;;;2.58;;
64550;SDS011;50945;44.472;-123.352;2022-12-07T10:08:33;3.55;;;2.60;;
64550;SDS011;50945;44.472;-123.352;2022-12-07T10:11:02;7.22;;;3.15;;
64550;SDS011;50945;44.472;-123.352;2022-12-07T10:13:39;4.47;;;3.13;;
64550;SDS011;50945;44.472;-123.352;2022-12-07T10:18:50;6.22;;;3.10;;
64550;SDS011;50945;44.472;-123.352;2022-12-07T10:21:18;6.85;;;3.50;;
64550;SDS011;50945;44.472;-123.352;2022-12-07T10:23:59;6.45;;;3.05;;
64550;SDS011;50945;44.472;-123.352;2022-12-07T10:29:48;4.32;;;2.30;;
64550;SDS011;50945;44.472;-123.352;2022-12-07T10:32:42;4.65;;;2.70;;
64550;SDS011;50945;44.472;-123.352;2022-12-07T10:34:44;3.05;;;2.20;;
64550;SDS011;50945;44.472;-123.352;2022-12-07T10:39:46;3.15;;;2.28;;
64550;SDS011;50945;44.472;-123.352;2022-12-07T11:08:38;2.17;;;1.98;;
64550;SDS011;50945;44.472;-123.352;2022-12-07T11:11:30;2.60;;;2.05;;
64550;SDS011;50945;44.472;-123.352;2022-12-07T11:16:43;2.65;;;2.08;;
64550;SDS011;50945;44.472;-123.352;2022-12-07T11:22:26;4.50;;;3.17;;
64550;SDS011;50945;44.472;-123.352;2022-12-07T11:33:51;2.92;;;2.30;;
64550;SDS011;50945;44.472;-123.352;2022-12-07T11:41:48;3.65;;;2.55;;
64550;SDS011;50945;44.472;-123.352;2022-12-07T11:44:30;2.58;;;2.20;;
64550;SDS011;50945;44.472;-123.352;2022-12-07T11:50:01;2.90;;;2.38;;
64550;SDS011;50945;44.472;-123.352;2022-12-07T11:52:44;2.75;;;2.05;;
64550;SDS011;50945;44.472;-123.352;2022-12-07T11:55:21;4.75;;;2.25;;
64550;SDS011;50945;44.472;-123.352;2022-12-07T11:58:11;2.92;;;2.25;;
64550;SDS011;50945;44.472;-123.352;2022-12-07T12:06:35;4.35;;;2.63;;
64550;SDS011;50945;44.472;-123.352;2022-12-07T12:20:29;2.85;;;2.00;;
64550;SDS011;50945;44.472;-123.352;2022-12-07T12:23:07;2.60;;;1.63;;
64550;SDS011;50945;44.472;-123.352;2022-12-07T12:25:57;2.05;;;1.77;;
64550;SDS011;50945;44.472;-123.352;2022-12-07T12:28:29;1.88;;;1.70;;
64550;SDS011;50945;44.472;-123.352;2022-12-07T12:32:04;3.67;;;1.90;;
64550;SDS011;50945;44.472;-123.352;2022-12-07T12:33:57;2.53;;;1.75;;
64550;SDS011;50945;44.472;-123.352;2022-12-07T12:57:37;6.32;;;3.42;;
64550;SDS011;50945;44.472;-123.352;2022-12-07T13:00:22;7.35;;;3.80;;
64550;SDS011;50945;44.472;-123.352;2022-12-07T13:02:54;7.22;;;3.58;;
64550;SDS011;50945;44.472;-123.352;2022-12-07T13:05:25;4.13;;;2.42;;
64550;SDS011;50945;44.472;-123.352;2022-12-07T13:07:56;4.97;;;2.13;;
64550;SDS011;50945;44.472;-123.352;2022-12-07T13:31:38;7.32;;;3.95;;
64550;SDS011;50945;44.472;-123.352;2022-12-07T13:36:58;8.57;;;3.85;;
64550;SDS011;50945;44.472;-123.352;2022-12-07T13:39:27;7.85;;;4.28;;
64550;SDS011;50945;44.472;-123.352;2022-12-07T13:41:55;7.80;;;4.00;;
64550;SDS011;50945;44.472;-123.352;2022-12-07T13:44:24;9.32;;;3.97;;
64550;SDS011;50945;44.472;-123.352;2022-12-07T13:49:47;6.97;;;3.88;;
64550;SDS011;50945;44.472;-123.352;2022-12-07T13:52:18;5.50;;;3.85;;
64550;SDS011;50945;44.472;-123.352;2022-12-07T13:54:56;6.25;;;3.97;;
64550;SDS011;50945;44.472;-123.352;2022-12-07T13:57:23;5.57;;;3.40;;
64550;SDS011;50945;44.472;-123.352;2022-12-07T13:59:51;7.80;;;4.80;;
64550;SDS011;50945;44.472;-123.352;2022-12-07T14:02:19;9.23;;;4.47;;
64550;SDS011;50945;44.472;-123.352;2022-12-07T14:04:50;8.52;;;3.88;;
64550;SDS011;50945;44.472;-123.352;2022-12-07T14:07:18;10.05;;;4.20;;
64550;SDS011;50945;44.472;-123.352;2022-12-07T14:09:53;8.07;;;3.60;;
64550;SDS011;50945;44.472;-123.352;2022-12-07T14:12:27;6.82;;;3.63;;
64550;SDS011;50945;44.472;-123.352;2022-12-07T14:14:55;4.40;;;3.53;;
64550;SDS011;50945;44.472;-123.352;2022-12-07T14:17:23;6.22;;;3.58;;
64550;SDS011;50945;44.472;-123.352;2022-12-07T14:20:00;4.75;;;3.05;;
64550;SDS011;50945;44.472;-123.352;2022-12-07T14:27:53;11.63;;;4.28;;
64550;SDS011;50945;44.472;-123.352;2022-12-07T14:30:22;7.25;;;3.92;;
64550;SDS011;50945;44.472;-123.352;2022-12-07T14:32:54;5.93;;;3.78;;
64550;SDS011;50945;44.472;-123.352;2022-12-07T14:35:27;8.20;;;3.95;;
64550;SDS011;50945;44.472;-123.352;2022-12-07T14:37:54;8.23;;;3.63;;
64550;SDS011;50945;44.472;-123.352;2022-12-07T14:40:21;10.30;;;4.25;;
64550;SDS011;50945;44.472;-123.352;2022-12-07T14:43:28;9.32;;;4.03;;
64550;SDS011;50945;44.472;-123.352;2022-12-07T14:45:47;5.78;;;3.88;;
64550;SDS011;50945;44.472;-123.352;2022-12-07T14:48:14;7.00;;;3.90;;
64550;SDS011;50945;44.472;-123.352;2022-12-07T14:53:11;5.70;;;3.22;;
64550;SDS011;50945;44.472;-123.352;2022-12-07T14:55:41;5.45;;;3.03;;
64550;SDS011;50945;44.472;-123.352;2022-12-07T14:58:12;5.10;;;3.17;;
64550;SDS011;50945;44.472;-123.352;2022-12-07T15:00:40;6.60;;;3.45;;
64550;SDS011;50945;44.472;-123.352;2022-12-07T15:03:06;8.63;;;4.05;;
64550;SDS011;50945;44.472;-123.352;2022-12-07T15:05:33;4.50;;;3.28;;
64550;SDS011;50945;44.472;-123.352;2022-12-07T15:10:27;7.43;;;3.72;;
64550;SDS011;50945;44.472;-123.352;2022-12-07T15:12:57;6.22;;;3.67;;
64550;SDS011;50945;44.472;-123.352;2022-12-07T15:15:45;6.63;;;3.40;;
64550;SDS011;50945;44.472;-123.352;2022-12-07T15:18:12;5.30;;;3.03;;
64550;SDS011;50945;44.472;-123.352;2022-12-07T15:20:38;5.32;;;3.58;;
64550;SDS011;50945;44.472;-123.352;2022-12-07T15:23:05;5.78;;;3.60;;
64550;SDS011;50945;44.472;-123.352;2022-12-07T15:25:31;6.35;;;4.15;;
64550;SDS011;50945;44.472;-123.352;2022-12-07T15:27:57;6.40;;;3.65;;
64550;SDS011;50945;44.472;-123.352;2022-12-07T15:30:24;4.90;;;3.08;;
64550;SDS011;50945;44.472;-123.352;2022-12-07T15:32:51;6.20;;;3.38;;
64550;SDS011;50945;44.472;-123.352;2022-12-07T15:35:17;6.32;;;3.92;;
64550;SDS011;50945;44.472;-123.352;2022-12-07T15:37:44;7.32;;;3.92;;
64550;SDS011;50945;44.472;-123.352;2022-12-07T15:40:12;5.20;;;3.85;;
64550;SDS011;50945;44.472;-123.352;2022-12-07T15:45:06;4.63;;;3.10;;
64550;SDS011;50945;44.472;-123.352;2022-12-07T15:47:37;7.40;;;3.35;;
64550;SDS011;50945;44.472;-123.352;2022-12-07T15:50:09;5.55;;;3.33;;
64550;SDS011;50945;44.472;-123.352;2022-12-07T15:52:38;4.05;;;2.83;;
64550;SDS011;50945;44.472;-123.352;2022-12-07T15:55:05;6.28;;;3.78;;
64550;SDS011;50945;44.472;-123.352;2022-12-07T15:57:35;5.55;;;2.97;;
64550;SDS011;50945;44.472;-123.352;2022-12-07T16:00:03;6.57;;;3.45;;
64550;SDS011;50945;44.472;-123.352;2022-12-07T16:02:31;6.47;;;3.35;;
64550;SDS011;50945;44.472;-123.352;2022-12-07T16:04:57;5.93;;;3.78;;
64550;SDS011;50945;44.472;-123.352;2022-12-07T16:07:24;4.75;;;3.30;;
64550;SDS011;50945;44.472;-123.352;2022-12-07T16:09:50;4.72;;;3.20;;
64550;SDS011;50945;44.472;-123.352;2022-12-07T16:12:16;6.30;;;4.05;;
64550;SDS011;50945;44.472;-123.352;2022-12-07T16:14:43;4.18;;;3.08;;
64550;SDS011;50945;44.472;-123.352;2022-12-07T16:17:09;3.08;;;2.55;;
64550;SDS011;50945;44.472;-123.352;2022-12-07T16:19:36;3.58;;;3.10;;
64550;SDS011;50945;44.472;-123.352;2022-12-07T16:22:03;4.50;;;3.30;;
64550;SDS011;50945;44.472;-123.352;2022-12-07T16:24:31;5.22;;;3.65;;
64550;SDS011;50945;44.472;-123.352;2022-12-07T16:26:57;3.22;;;2.60;;
64550;SDS011;50945;44.472;-123.352;2022-12-07T16:29:24;4.97;;;2.97;;
64550;SDS011;50945;44.472;-123.352;2022-12-07T16:31:50;3.85;;;3.15;;
64550;SDS011;50945;44.472;-123.352;2022-12-07T16:34:17;4.43;;;3.10;;
64550;SDS011;50945;44.472;-123.352;2022-12-07T16:36:44;3.88;;;3.08;;
64550;SDS011;50945;44.472;-123.352;2022-12-07T16:39:10;3.42;;;3.05;;
64550;SDS011;50945;44.472;-123.352;2022-12-07T16:41:37;4.88;;;3.25;;
64550;SDS011;50945;44.472;-123.352;2022-12-07T16:44:04;4.78;;;3.30;;
64550;SDS011;50945;44.472;-123.352;2022-12-07T16:46:33;4.10;;;3.13;;
64550;SDS011;50945;44.472;-123.352;2022-12-07T16:49:01;4.00;;;3.55;;
64550;SDS011;50945;44.472;-123.352;2022-12-07T16:51:27;5.55;;;3.67;;
64550;SDS011;50945;44.472;-123.352;2022-12-07T16:53:54;6.22;;;3.83;;
64550;SDS011;50945;44.472;-123.352;2022-12-07T16:56:20;5.18;;;3.63;;
64550;SDS011;50945;44.472;-123.352;2022-12-07T16:58:47;5.45;;;3.90;;
64550;SDS011;50945;44.472;-123.352;2022-12-07T17:01:23;7.18;;;3.63;;
64550;SDS011;50945;44.472;-123.352;2022-12-07T17:03:52;7.05;;;3.75;;
64550;SDS011;50945;44.472;-123.352;2022-12-07T17:06:25;8.15;;;5.00;;
64550;SDS011;50945;44.472;-123.352;2022-12-07T17:08:53;5.90;;;3.92;;
64550;SDS011;50945;44.472;-123.352;2022-12-07T17:11:22;8.43;;;4.43;;
64550;SDS011;50945;44.472;-123.352;2022-12-07T17:13:50;10.15;;;4.88;;
64550;SDS011;50945;44.472;-123.352;2022-12-07T17:16:35;6.55;;;4.20;;
64550;SDS011;50945;44.472;-123.352;2022-12-07T17:19:06;6.70;;;4.30;;
64550;SDS011;50945;44.472;-123.352;2022-12-07T17:21:33;5.55;;;3.63;;
64550;SDS011;50945;44.472;-123.352;2022-12-07T17:24:01;7.72;;;4.18;;
64550;SDS011;50945;44.472;-123.352;2022-12-07T17:26:30;5.18;;;3.47;;
64550;SDS011;50945;44.472;-123.352;2022-12-07T17:28:57;7.47;;;3.85;;